Pomfret, VT

3:47 AM EST on February 08, 2016 (GMT -0500)
Quimby Mountain | | Change Station
CLOSE
Current Station
Personal Weather Station
Location: Sharon, VT
Elevation: 1015 ft
Nearby Weather Stations

Elev 1015 ft 43.77 °N, 72.42 °W | Updated 3 seconds ago

Partly Cloudy
Partly Cloudy
27.0 °F
Feels Like 27 °F
N
2.0
Wind Variable Wind from South
Gusts 2.0 mph

Today
High -- | Low -- °F
--% Chance of Precip.
Yesterday
High -- | Low -- °F
Precip. -- in
Pressure 30.00 in
Visibility 10.0 miles
Clouds Clear
Windchill 27 °F
Dew Point 17 °F
Humidity 66%
Rainfall 0.00 in
Snow Depth Not available.
6:58 AM 5:09 PM
Waning Crescent, 0% visible
METAR KLEB 080753Z AUTO 34003KT 10SM CLR M03/M07 A2998 RMK AO2 SLP158 T10281072
Pressure 30.00 in
Visibility 10.0 miles
Clouds Clear
Windchill 27 °F
Dew Point 17 °F
Humidity 66%
Rainfall 0.00 in
Snow Depth Not available.
6:58 AM 5:09 PM
Waning Crescent, 0% visible
METAR KLEB 080753Z AUTO 34003KT 10SM CLR M03/M07 A2998 RMK AO2 SLP158 T10281072

10-Day Weather Forecast

Almanac

Astronomy

Feb. 08, 2016 Rise Set
Actual Time
Civil Twilight
Nautical Twilight
Astronomical Twilight
Moon
Length of Visible Light
Length of Day
Tomorrow will be .
, % of the Moon is Illuminated

Today's Extremes

State Highs State Lows

Community

WunderPhotos

Upload Photos

1,891,412 photos uploaded!

WunderBlog® & News

Nearby

Air Quality

  Air Quality AQ Index Pollutant
Not available.

Snow Depth

Station Depth Elevation

Earthquake Activity

City Distance Mag. Time & Date
Minimum magnitude displayed is 2.5.

Coastal Water Temperatures

Place Temperature

Stations

Nearby Weather Stations

Station Location Temp. Windchill Dew Point Humidity Wind Precip. Elev Updated Type
                   

Watches & Warnings

There are currently no watches in effect.